map of POX home
POX - Airport
Location
City:  Pontoise, Īle-de-France, France
Near (Alt.):Paris
Name:Pontoise - Cormeilles en Vexin
ICAO:LFPT
IATA:POX

Details
Type:Airport (Aerodrome, Airfield)
Use:Public/Civil
Latitude:49°05'48"N (49.096628)
Longitude:2°02'27"E (2.040722)
Elevation:325 ft (99 m)
Variation:0.34°E (WMM2015 magnetic declination)
0.14° annual change
Runways:2
Longest:5541 × 164 ft (1689 × 50 m)

Time
Time Zone:UTC+1 (DST+2)
Local Time:

Weather
METAR:LFPT 090900Z AUTO 16002KT 0800 R05/0800U FG SCT004 03/02 Q1031

Related Locations
Nearby:
Farthest:CHT: 12058 mi / 19406 km
Waitangi [Tuuta], CIT, NZ

Find:

   beyond  
but within

Other Information
Maps:
NOTAMs:
Links:
Sources:

  
flag of France
flag of Īle-de-France
  

Sectional Chart

Flight Planning
at skyvector.com

Satellite Image

Google Maps Satellite view

 

Copyright © 2004-2016 Karl L. Swartz. All rights reserved.
The Great Circle Mapper name and logo are trademarks of the Great Circle Mapper.
All other trademarks mentioned herein belong to their respective owners.
Please see credits for attibutions and further copyright information.

  Follow gcmap on Facebook Follow gcmap on Twitter Follow gcmap on Google+ GCmap on LinkedIn

hCard Microformat

Geo Microformat